sensor_id;sensor_type;location;lat;lon;timestamp;temperature;humidity
51765;DHT22;37835;53.256;6.456;2024-03-08T00:01:01;2.20;99.90
51765;DHT22;37835;53.256;6.456;2024-03-08T00:03:27;1.50;99.90
51765;DHT22;37835;53.256;6.456;2024-03-08T00:05:54;1.90;99.90
51765;DHT22;37835;53.256;6.456;2024-03-08T00:08:21;1.80;99.90
51765;DHT22;37835;53.256;6.456;2024-03-08T00:10:47;-0.30;99.90
51765;DHT22;37835;53.256;6.456;2024-03-08T00:13:12;2.80;99.90
51765;DHT22;37835;53.256;6.456;2024-03-08T00:15:38;2.90;99.90
51765;DHT22;37835;53.256;6.456;2024-03-08T00:18:04;1.70;99.90
51765;DHT22;37835;53.256;6.456;2024-03-08T00:20:29;1.70;99.90
51765;DHT22;37835;53.256;6.456;2024-03-08T00:22:55;2.20;99.90
51765;DHT22;37835;53.256;6.456;2024-03-08T00:25:23;1.40;99.90
51765;DHT22;37835;53.256;6.456;2024-03-08T00:27:49;1.70;99.90
51765;DHT22;37835;53.256;6.456;2024-03-08T00:30:15;1.70;99.90
51765;DHT22;37835;53.256;6.456;2024-03-08T00:32:40;1.70;99.90
51765;DHT22;37835;53.256;6.456;2024-03-08T00:35:06;1.60;99.90
51765;DHT22;37835;53.256;6.456;2024-03-08T00:37:32;1.70;99.90
51765;DHT22;37835;53.256;6.456;2024-03-08T00:40:00;1.70;99.90
51765;DHT22;37835;53.256;6.456;2024-03-08T00:42:26;1.40;99.90
51765;DHT22;37835;53.256;6.456;2024-03-08T00:44:51;1.70;99.90
51765;DHT22;37835;53.256;6.456;2024-03-08T00:47:17;1.50;99.90
51765;DHT22;37835;53.256;6.456;2024-03-08T00:49:43;1.60;99.90
51765;DHT22;37835;53.256;6.456;2024-03-08T00:52:09;1.30;99.90
51765;DHT22;37835;53.256;6.456;2024-03-08T00:54:35;1.60;99.90
51765;DHT22;37835;53.256;6.456;2024-03-08T00:57:03;1.30;99.90
51765;DHT22;37835;53.256;6.456;2024-03-08T00:59:30;1.60;99.90
51765;DHT22;37835;53.256;6.456;2024-03-08T01:01:59;1.60;99.90
51765;DHT22;37835;53.256;6.456;2024-03-08T01:04:28;1.60;99.90
51765;DHT22;37835;53.256;6.456;2024-03-08T01:06:57;1.70;99.90
51765;DHT22;37835;53.256;6.456;2024-03-08T01:09:24;1.40;99.90
51765;DHT22;37835;53.256;6.456;2024-03-08T01:11:49;1.40;99.90
51765;DHT22;37835;53.256;6.456;2024-03-08T01:14:16;1.40;99.90
51765;DHT22;37835;53.256;6.456;2024-03-08T01:16:41;1.40;99.90
51765;DHT22;37835;53.256;6.456;2024-03-08T01:19:07;1.60;99.90
51765;DHT22;37835;53.256;6.456;2024-03-08T01:21:33;1.60;99.90
51765;DHT22;37835;53.256;6.456;2024-03-08T01:23:59;1.60;99.90
51765;DHT22;37835;53.256;6.456;2024-03-08T01:26:25;1.60;99.90
51765;DHT22;37835;53.256;6.456;2024-03-08T01:28:51;2.40;99.90
51765;DHT22;37835;53.256;6.456;2024-03-08T01:31:17;1.50;99.90
51765;DHT22;37835;53.256;6.456;2024-03-08T01:33:42;1.50;99.90
51765;DHT22;37835;53.256;6.456;2024-03-08T01:36:08;1.20;99.90
51765;DHT22;37835;53.256;6.456;2024-03-08T01:38:34;2.70;99.90
51765;DHT22;37835;53.256;6.456;2024-03-08T01:40:59;2.90;99.90
51765;DHT22;37835;53.256;6.456;2024-03-08T01:43:26;1.50;99.90
51765;DHT22;37835;53.256;6.456;2024-03-08T01:45:55;1.50;99.90
51765;DHT22;37835;53.256;6.456;2024-03-08T01:48:21;1.50;99.90
51765;DHT22;37835;53.256;6.456;2024-03-08T01:50:52;1.30;99.90
51765;DHT22;37835;53.256;6.456;2024-03-08T01:53:20;1.30;99.90
51765;DHT22;37835;53.256;6.456;2024-03-08T01:55:48;1.30;99.90
51765;DHT22;37835;53.256;6.456;2024-03-08T01:58:14;1.40;99.90
51765;DHT22;37835;53.256;6.456;2024-03-08T02:00:43;1.20;99.90
51765;DHT22;37835;53.256;6.456;2024-03-08T02:03:09;2.60;99.90
51765;DHT22;37835;53.256;6.456;2024-03-08T02:05:36;1.10;99.90
51765;DHT22;37835;53.256;6.456;2024-03-08T02:08:04;1.30;99.90
51765;DHT22;37835;53.256;6.456;2024-03-08T02:10:35;1.30;99.90
51765;DHT22;37835;53.256;6.456;2024-03-08T02:13:02;2.50;99.90
51765;DHT22;37835;53.256;6.456;2024-03-08T02:15:57;1.30;99.90
51765;DHT22;37835;53.256;6.456;2024-03-08T02:18:24;2.10;99.90
51765;DHT22;37835;53.256;6.456;2024-03-08T02:20:58;1.10;99.90
51765;DHT22;37835;53.256;6.456;2024-03-08T02:23:24;1.30;99.90
51765;DHT22;37835;53.256;6.456;2024-03-08T02:25:53;1.00;99.90
51765;DHT22;37835;53.256;6.456;2024-03-08T02:28:20;1.20;99.90
51765;DHT22;37835;53.256;6.456;2024-03-08T02:30:47;0.80;99.90
51765;DHT22;37835;53.256;6.456;2024-03-08T02:33:17;1.20;99.90
51765;DHT22;37835;53.256;6.456;2024-03-08T02:35:47;1.70;99.90
51765;DHT22;37835;53.256;6.456;2024-03-08T02:38:14;1.20;99.90
51765;DHT22;37835;53.256;6.456;2024-03-08T02:40:45;1.00;99.90
51765;DHT22;37835;53.256;6.456;2024-03-08T02:43:12;1.10;99.90
51765;DHT22;37835;53.256;6.456;2024-03-08T02:45:38;2.80;99.90
51765;DHT22;37835;53.256;6.456;2024-03-08T02:48:05;1.10;99.90
51765;DHT22;37835;53.256;6.456;2024-03-08T02:50:34;1.10;99.90
51765;DHT22;37835;53.256;6.456;2024-03-08T02:53:03;0.90;99.90
51765;DHT22;37835;53.256;6.456;2024-03-08T02:55:30;1.10;99.90
51765;DHT22;37835;53.256;6.456;2024-03-08T03:42:18;0.80;99.90
51765;DHT22;37835;53.256;6.456;2024-03-08T03:44:45;1.60;99.90
51765;DHT22;37835;53.256;6.456;2024-03-08T03:47:11;1.20;99.90
51765;DHT22;37835;53.256;6.456;2024-03-08T03:49:37;0.70;99.90
51765;DHT22;37835;53.256;6.456;2024-03-08T03:52:02;0.70;99.90
51765;DHT22;37835;53.256;6.456;2024-03-08T03:54:30;2.80;99.90
51765;DHT22;37835;53.256;6.456;2024-03-08T03:56:56;0.70;99.90
51765;DHT22;37835;53.256;6.456;2024-03-08T03:59:22;0.70;99.90
51765;DHT22;37835;53.256;6.456;2024-03-08T04:01:47;0.70;99.90
51765;DHT22;37835;53.256;6.456;2024-03-08T04:04:15;0.70;99.90
51765;DHT22;37835;53.256;6.456;2024-03-08T04:06:41;0.70;99.90
51765;DHT22;37835;53.256;6.456;2024-03-08T04:09:07;2.10;99.90
51765;DHT22;37835;53.256;6.456;2024-03-08T04:11:33;2.00;99.90
51765;DHT22;37835;53.256;6.456;2024-03-08T04:13:58;0.80;99.90
51765;DHT22;37835;53.256;6.456;2024-03-08T04:16:24;0.80;99.90
51765;DHT22;37835;53.256;6.456;2024-03-08T04:18:51;0.60;99.90
51765;DHT22;37835;53.256;6.456;2024-03-08T04:21:17;0.70;99.90
51765;DHT22;37835;53.256;6.456;2024-03-08T04:23:44;0.60;99.90
51765;DHT22;37835;53.256;6.456;2024-03-08T04:26:11;1.90;99.90
51765;DHT22;37835;53.256;6.456;2024-03-08T04:28:37;0.60;99.90
51765;DHT22;37835;53.256;6.456;2024-03-08T04:31:03;0.60;99.90
51765;DHT22;37835;53.256;6.456;2024-03-08T04:33:29;-0.40;99.90
51765;DHT22;37835;53.256;6.456;2024-03-08T04:35:55;0.90;99.90
51765;DHT22;37835;53.256;6.456;2024-03-08T04:38:21;1.20;99.90
51765;DHT22;37835;53.256;6.456;2024-03-08T04:40:48;0.50;99.90
51765;DHT22;37835;53.256;6.456;2024-03-08T04:45:40;0.50;99.90
51765;DHT22;37835;53.256;6.456;2024-03-08T04:48:09;-0.50;99.90
51765;DHT22;37835;53.256;6.456;2024-03-08T04:50:34;-0.60;99.90
51765;DHT22;37835;53.256;6.456;2024-03-08T04:53:00;0.50;99.90
51765;DHT22;37835;53.256;6.456;2024-03-08T04:55:26;0.50;99.90
51765;DHT22;37835;53.256;6.456;2024-03-08T04:57:51;2.10;99.90
51765;DHT22;37835;53.256;6.456;2024-03-08T05:00:18;1.80;99.90
51765;DHT22;37835;53.256;6.456;2024-03-08T05:02:44;0.40;99.90
51765;DHT22;37835;53.256;6.456;2024-03-08T05:05:10;0.40;99.90
51765;DHT22;37835;53.256;6.456;2024-03-08T05:12:33;0.40;99.90
51765;DHT22;37835;53.256;6.456;2024-03-08T05:14:58;1.10;99.90
51765;DHT22;37835;53.256;6.456;2024-03-08T05:17:24;0.30;99.90
51765;DHT22;37835;53.256;6.456;2024-03-08T05:19:50;2.10;99.90
51765;DHT22;37835;53.256;6.456;2024-03-08T05:22:16;-0.20;99.90
51765;DHT22;37835;53.256;6.456;2024-03-08T05:24:43;-0.10;99.90
51765;DHT22;37835;53.256;6.456;2024-03-08T05:27:08;0.30;99.90
51765;DHT22;37835;53.256;6.456;2024-03-08T05:29:34;-1.10;99.90
51765;DHT22;37835;53.256;6.456;2024-03-08T05:32:00;-2.10;99.90
51765;DHT22;37835;53.256;6.456;2024-03-08T05:34:26;-1.30;99.90
51765;DHT22;37835;53.256;6.456;2024-03-08T05:36:54;-0.20;99.90
51765;DHT22;37835;53.256;6.456;2024-03-08T05:39:20;0.20;99.90
51765;DHT22;37835;53.256;6.456;2024-03-08T05:41:46;0.90;99.90
51765;DHT22;37835;53.256;6.456;2024-03-08T05:44:12;1.20;99.90
51765;DHT22;37835;53.256;6.456;2024-03-08T05:46:39;0.20;99.90
51765;DHT22;37835;53.256;6.456;2024-03-08T05:49:06;-1.30;99.90
51765;DHT22;37835;53.256;6.456;2024-03-08T05:51:32;0.40;99.90
51765;DHT22;37835;53.256;6.456;2024-03-08T05:54:01;1.50;99.90
51765;DHT22;37835;53.256;6.456;2024-03-08T05:56:28;0.00;99.90
51765;DHT22;37835;53.256;6.456;2024-03-08T05:58:54;0.10;99.90
51765;DHT22;37835;53.256;6.456;2024-03-08T06:01:20;1.90;99.90
51765;DHT22;37835;53.256;6.456;2024-03-08T06:03:47;0.80;99.90
51765;DHT22;37835;53.256;6.456;2024-03-08T06:06:14;0.30;99.90
51765;DHT22;37835;53.256;6.456;2024-03-08T06:08:41;1.10;99.90
51765;DHT22;37835;53.256;6.456;2024-03-08T06:11:09;0.10;99.90
51765;DHT22;37835;53.256;6.456;2024-03-08T06:13:34;0.10;99.90
51765;DHT22;37835;53.256;6.456;2024-03-08T06:16:01;1.90;99.90
51765;DHT22;37835;53.256;6.456;2024-03-08T06:18:33;1.20;99.90
51765;DHT22;37835;53.256;6.456;2024-03-08T06:20:59;-1.70;99.90
51765;DHT22;37835;53.256;6.456;2024-03-08T06:23:25;0.00;99.90
51765;DHT22;37835;53.256;6.456;2024-03-08T06:25:53;0.10;99.90
51765;DHT22;37835;53.256;6.456;2024-03-08T06:28:18;1.50;99.90
51765;DHT22;37835;53.256;6.456;2024-03-08T06:30:44;0.70;99.90
51765;DHT22;37835;53.256;6.456;2024-03-08T06:33:10;-1.10;99.90
51765;DHT22;37835;53.256;6.456;2024-03-08T06:35:36;0.00;99.90
51765;DHT22;37835;53.256;6.456;2024-03-08T06:38:04;0.20;99.90
51765;DHT22;37835;53.256;6.456;2024-03-08T06:40:29;0.10;99.90
51765;DHT22;37835;53.256;6.456;2024-03-08T06:42:55;1.30;99.90
51765;DHT22;37835;53.256;6.456;2024-03-08T06:45:21;1.70;99.90
51765;DHT22;37835;53.256;6.456;2024-03-08T06:47:49;0.10;99.90
51765;DHT22;37835;53.256;6.456;2024-03-08T06:50:15;-0.90;99.90
51765;DHT22;37835;53.256;6.456;2024-03-08T06:52:41;-0.70;99.90
51765;DHT22;37835;53.256;6.456;2024-03-08T06:55:10;-0.40;99.90
51765;DHT22;37835;53.256;6.456;2024-03-08T06:57:40;0.20;99.90
51765;DHT22;37835;53.256;6.456;2024-03-08T07:00:09;-0.60;99.90
51765;DHT22;37835;53.256;6.456;2024-03-08T07:02:37;0.60;99.90
51765;DHT22;37835;53.256;6.456;2024-03-08T07:05:05;0.30;99.90
51765;DHT22;37835;53.256;6.456;2024-03-08T07:07:31;0.30;99.90
51765;DHT22;37835;53.256;6.456;2024-03-08T07:09:59;0.90;99.90
51765;DHT22;37835;53.256;6.456;2024-03-08T07:12:25;0.40;99.90
51765;DHT22;37835;53.256;6.456;2024-03-08T07:17:17;0.40;99.90
51765;DHT22;37835;53.256;6.456;2024-03-08T07:19:43;1.70;99.90
51765;DHT22;37835;53.256;6.456;2024-03-08T07:22:09;0.40;99.90
51765;DHT22;37835;53.256;6.456;2024-03-08T07:24:35;1.00;99.90
51765;DHT22;37835;53.256;6.456;2024-03-08T07:27:19;1.70;99.90
51765;DHT22;37835;53.256;6.456;2024-03-08T07:29:45;1.10;99.90
51765;DHT22;37835;53.256;6.456;2024-03-08T07:34:47;0.60;99.90
51765;DHT22;37835;53.256;6.456;2024-03-08T07:37:14;1.60;99.90
51765;DHT22;37835;53.256;6.456;2024-03-08T07:39:39;0.70;99.90
51765;DHT22;37835;53.256;6.456;2024-03-08T07:42:05;0.70;99.90
51765;DHT22;37835;53.256;6.456;2024-03-08T07:44:31;1.90;99.90
51765;DHT22;37835;53.256;6.456;2024-03-08T07:46:58;1.10;99.90
51765;DHT22;37835;53.256;6.456;2024-03-08T07:49:24;1.40;99.90
51765;DHT22;37835;53.256;6.456;2024-03-08T07:51:50;1.10;99.90
51765;DHT22;37835;53.256;6.456;2024-03-08T07:54:15;0.70;99.90
51765;DHT22;37835;53.256;6.456;2024-03-08T07:56:41;2.30;99.90
51765;DHT22;37835;53.256;6.456;2024-03-08T07:59:07;1.70;99.90
51765;DHT22;37835;53.256;6.456;2024-03-08T08:04:00;0.70;99.90
51765;DHT22;37835;53.256;6.456;2024-03-08T08:06:27;1.20;99.90
51765;DHT22;37835;53.256;6.456;2024-03-08T08:08:53;1.50;99.90
51765;DHT22;37835;53.256;6.456;2024-03-08T08:11:19;1.30;99.90
51765;DHT22;37835;53.256;6.456;2024-03-08T08:13:46;1.40;99.90
51765;DHT22;37835;53.256;6.456;2024-03-08T08:16:11;1.40;99.90
51765;DHT22;37835;53.256;6.456;2024-03-08T08:18:38;1.50;99.90
51765;DHT22;37835;53.256;6.456;2024-03-08T08:21:05;2.40;99.90
51765;DHT22;37835;53.256;6.456;2024-03-08T08:23:33;1.60;99.90
51765;DHT22;37835;53.256;6.456;2024-03-08T08:25:59;1.60;99.90
51765;DHT22;37835;53.256;6.456;2024-03-08T08:28:26;1.70;99.90
51765;DHT22;37835;53.256;6.456;2024-03-08T08:30:52;2.10;99.90
51765;DHT22;37835;53.256;6.456;2024-03-08T08:33:18;2.50;99.90
51765;DHT22;37835;53.256;6.456;2024-03-08T08:35:43;1.90;99.90
51765;DHT22;37835;53.256;6.456;2024-03-08T08:38:09;1.90;99.90
51765;DHT22;37835;53.256;6.456;2024-03-08T08:40:35;2.90;99.90
51765;DHT22;37835;53.256;6.456;2024-03-08T08:43:02;2.80;99.90
51765;DHT22;37835;53.256;6.456;2024-03-08T08:45:31;2.30;99.90
51765;DHT22;37835;53.256;6.456;2024-03-08T08:47:57;2.30;99.90
51765;DHT22;37835;53.256;6.456;2024-03-08T08:50:25;2.40;99.90
51765;DHT22;37835;53.256;6.456;2024-03-08T08:52:54;2.50;99.90
51765;DHT22;37835;53.256;6.456;2024-03-08T08:55:21;2.40;99.90
51765;DHT22;37835;53.256;6.456;2024-03-08T08:57:50;2.60;99.90
51765;DHT22;37835;53.256;6.456;2024-03-08T09:00:18;2.60;99.90
51765;DHT22;37835;53.256;6.456;2024-03-08T09:02:45;2.80;99.90
51765;DHT22;37835;53.256;6.456;2024-03-08T09:05:11;3.10;99.90
51765;DHT22;37835;53.256;6.456;2024-03-08T09:07:37;2.90;99.90
51765;DHT22;37835;53.256;6.456;2024-03-08T09:10:03;3.00;99.90
51765;DHT22;37835;53.256;6.456;2024-03-08T09:12:29;3.40;99.90
51765;DHT22;37835;53.256;6.456;2024-03-08T09:14:55;3.10;99.90
51765;DHT22;37835;53.256;6.456;2024-03-08T09:17:20;3.20;99.90
51765;DHT22;37835;53.256;6.456;2024-03-08T09:19:46;3.20;99.90
51765;DHT22;37835;53.256;6.456;2024-03-08T09:22:13;3.30;99.90
51765;DHT22;37835;53.256;6.456;2024-03-08T09:39:17;3.70;99.90
51765;DHT22;37835;53.256;6.456;2024-03-08T09:41:46;4.00;99.90
51765;DHT22;37835;53.256;6.456;2024-03-08T09:44:15;4.00;99.90
51765;DHT22;37835;53.256;6.456;2024-03-08T09:46:42;4.40;99.90
51765;DHT22;37835;53.256;6.456;2024-03-08T09:49:08;4.50;99.90
51765;DHT22;37835;53.256;6.456;2024-03-08T09:51:34;4.00;99.90
51765;DHT22;37835;53.256;6.456;2024-03-08T09:54:01;3.30;99.90
51765;DHT22;37835;53.256;6.456;2024-03-08T09:56:32;4.00;99.90
51765;DHT22;37835;53.256;6.456;2024-03-08T09:58:59;4.10;99.90
51765;DHT22;37835;53.256;6.456;2024-03-08T10:01:43;4.10;99.90
51765;DHT22;37835;53.256;6.456;2024-03-08T10:04:09;3.90;99.90
51765;DHT22;37835;53.256;6.456;2024-03-08T10:06:36;4.40;99.90
51765;DHT22;37835;53.256;6.456;2024-03-08T10:09:02;4.90;99.90
51765;DHT22;37835;53.256;6.456;2024-03-08T10:11:27;4.40;99.90
51765;DHT22;37835;53.256;6.456;2024-03-08T10:13:54;4.40;99.90
51765;DHT22;37835;53.256;6.456;2024-03-08T10:16:20;4.80;99.90
51765;DHT22;37835;53.256;6.456;2024-03-08T10:18:46;4.70;99.90
51765;DHT22;37835;53.256;6.456;2024-03-08T10:21:12;4.60;99.90
51765;DHT22;37835;53.256;6.456;2024-03-08T10:23:39;4.60;99.90
51765;DHT22;37835;53.256;6.456;2024-03-08T10:26:15;4.80;99.90
51765;DHT22;37835;53.256;6.456;2024-03-08T10:28:42;5.20;99.90
51765;DHT22;37835;53.256;6.456;2024-03-08T10:31:08;4.70;99.90
51765;DHT22;37835;53.256;6.456;2024-03-08T10:33:35;4.80;99.90
51765;DHT22;37835;53.256;6.456;2024-03-08T10:36:00;4.90;99.90
51765;DHT22;37835;53.256;6.456;2024-03-08T10:38:26;4.90;99.90
51765;DHT22;37835;53.256;6.456;2024-03-08T10:40:57;5.00;99.90
51765;DHT22;37835;53.256;6.456;2024-03-08T10:43:24;5.10;99.90
51765;DHT22;37835;53.256;6.456;2024-03-08T10:46:30;5.50;99.90
51765;DHT22;37835;53.256;6.456;2024-03-08T10:49:00;5.40;99.90
51765;DHT22;37835;53.256;6.456;2024-03-08T10:51:29;5.40;99.90
51765;DHT22;37835;53.256;6.456;2024-03-08T10:53:57;5.40;99.90
51765;DHT22;37835;53.256;6.456;2024-03-08T10:56:25;5.40;99.90
51765;DHT22;37835;53.256;6.456;2024-03-08T10:58:53;5.40;99.90
51765;DHT22;37835;53.256;6.456;2024-03-08T11:01:19;5.50;99.90
51765;DHT22;37835;53.256;6.456;2024-03-08T11:03:46;5.50;99.90
51765;DHT22;37835;53.256;6.456;2024-03-08T11:06:18;5.60;99.90
51765;DHT22;37835;53.256;6.456;2024-03-08T11:08:46;5.70;99.90
51765;DHT22;37835;53.256;6.456;2024-03-08T11:11:29;5.80;99.90
51765;DHT22;37835;53.256;6.456;2024-03-08T11:13:58;5.80;99.90
51765;DHT22;37835;53.256;6.456;2024-03-08T11:19:00;5.90;99.90
51765;DHT22;37835;53.256;6.456;2024-03-08T11:21:36;6.00;99.90
51765;DHT22;37835;53.256;6.456;2024-03-08T11:24:14;6.00;99.90
51765;DHT22;37835;53.256;6.456;2024-03-08T11:26:42;6.20;99.90
51765;DHT22;37835;53.256;6.456;2024-03-08T11:32:18;6.20;99.90
51765;DHT22;37835;53.256;6.456;2024-03-08T11:34:48;6.30;99.90
51765;DHT22;37835;53.256;6.456;2024-03-08T11:37:19;6.30;99.90
51765;DHT22;37835;53.256;6.456;2024-03-08T11:39:54;6.40;99.90
51765;DHT22;37835;53.256;6.456;2024-03-08T11:42:24;6.50;99.90
51765;DHT22;37835;53.256;6.456;2024-03-08T11:44:52;6.50;99.90
51765;DHT22;37835;53.256;6.456;2024-03-08T11:47:18;6.50;99.90
51765;DHT22;37835;53.256;6.456;2024-03-08T11:49:44;7.00;99.90
51765;DHT22;37835;53.256;6.456;2024-03-08T11:52:14;6.90;99.90
51765;DHT22;37835;53.256;6.456;2024-03-08T11:54:47;7.00;99.90
51765;DHT22;37835;53.256;6.456;2024-03-08T11:57:18;7.00;99.90
51765;DHT22;37835;53.256;6.456;2024-03-08T11:59:52;6.90;99.90
51765;DHT22;37835;53.256;6.456;2024-03-08T12:02:18;6.90;99.90
51765;DHT22;37835;53.256;6.456;2024-03-08T12:04:47;7.00;99.90
51765;DHT22;37835;53.256;6.456;2024-03-08T12:07:13;7.80;99.90
51765;DHT22;37835;53.256;6.456;2024-03-08T12:09:43;7.20;99.90
51765;DHT22;37835;53.256;6.456;2024-03-08T12:12:12;6.00;99.90
51765;DHT22;37835;53.256;6.456;2024-03-08T12:14:38;7.30;99.90
51765;DHT22;37835;53.256;6.456;2024-03-08T12:17:04;7.30;99.90
51765;DHT22;37835;53.256;6.456;2024-03-08T12:19:31;7.30;99.90
51765;DHT22;37835;53.256;6.456;2024-03-08T12:22:07;7.40;99.90
51765;DHT22;37835;53.256;6.456;2024-03-08T12:24:35;7.50;99.90
51765;DHT22;37835;53.256;6.456;2024-03-08T12:27:17;7.50;99.90
51765;DHT22;37835;53.256;6.456;2024-03-08T12:29:43;7.50;99.90
51765;DHT22;37835;53.256;6.456;2024-03-08T12:32:10;7.50;99.90
51765;DHT22;37835;53.256;6.456;2024-03-08T12:34:37;7.60;99.90
51765;DHT22;37835;53.256;6.456;2024-03-08T12:37:02;7.60;99.90
51765;DHT22;37835;53.256;6.456;2024-03-08T12:39:32;7.70;99.90
51765;DHT22;37835;53.256;6.456;2024-03-08T12:41:58;7.70;99.90
51765;DHT22;37835;53.256;6.456;2024-03-08T12:44:25;7.70;99.90
51765;DHT22;37835;53.256;6.456;2024-03-08T12:46:52;7.80;99.90
51765;DHT22;37835;53.256;6.456;2024-03-08T12:49:19;8.20;99.90
51765;DHT22;37835;53.256;6.456;2024-03-08T12:51:47;8.10;99.90
51765;DHT22;37835;53.256;6.456;2024-03-08T12:54:13;7.90;99.90
51765;DHT22;37835;53.256;6.456;2024-03-08T12:56:39;7.90;99.90
51765;DHT22;37835;53.256;6.456;2024-03-08T12:59:06;8.00;99.90
51765;DHT22;37835;53.256;6.456;2024-03-08T13:01:38;7.30;99.90
51765;DHT22;37835;53.256;6.456;2024-03-08T13:04:05;8.10;99.90
51765;DHT22;37835;53.256;6.456;2024-03-08T13:06:32;8.20;99.90
51765;DHT22;37835;53.256;6.456;2024-03-08T13:08:58;8.30;99.90
51765;DHT22;37835;53.256;6.456;2024-03-08T13:11:26;8.40;99.90
51765;DHT22;37835;53.256;6.456;2024-03-08T13:13:52;8.30;99.90
51765;DHT22;37835;53.256;6.456;2024-03-08T13:16:18;8.40;99.90
51765;DHT22;37835;53.256;6.456;2024-03-08T13:18:45;8.40;99.90
51765;DHT22;37835;53.256;6.456;2024-03-08T13:21:14;8.40;99.90
51765;DHT22;37835;53.256;6.456;2024-03-08T13:23:41;8.50;99.90
51765;DHT22;37835;53.256;6.456;2024-03-08T13:26:09;8.50;99.90
51765;DHT22;37835;53.256;6.456;2024-03-08T13:28:37;8.50;99.90
51765;DHT22;37835;53.256;6.456;2024-03-08T13:31:06;8.60;99.90
51765;DHT22;37835;53.256;6.456;2024-03-08T13:33:36;8.60;99.90
51765;DHT22;37835;53.256;6.456;2024-03-08T13:36:06;8.70;99.90
51765;DHT22;37835;53.256;6.456;2024-03-08T13:38:34;8.70;99.90
51765;DHT22;37835;53.256;6.456;2024-03-08T13:41:02;8.80;99.90
51765;DHT22;37835;53.256;6.456;2024-03-08T13:43:28;8.80;99.90
51765;DHT22;37835;53.256;6.456;2024-03-08T13:45:57;8.90;99.90
51765;DHT22;37835;53.256;6.456;2024-03-08T13:48:23;8.90;99.90
51765;DHT22;37835;53.256;6.456;2024-03-08T13:50:49;8.90;99.90
51765;DHT22;37835;53.256;6.456;2024-03-08T13:53:15;8.90;99.90
51765;DHT22;37835;53.256;6.456;2024-03-08T13:55:41;9.00;99.90
51765;DHT22;37835;53.256;6.456;2024-03-08T13:58:07;9.00;99.90
51765;DHT22;37835;53.256;6.456;2024-03-08T14:00:38;9.10;99.90
51765;DHT22;37835;53.256;6.456;2024-03-08T14:03:04;9.10;99.90
51765;DHT22;37835;53.256;6.456;2024-03-08T14:05:31;9.10;99.90
51765;DHT22;37835;53.256;6.456;2024-03-08T14:08:01;9.10;99.90
51765;DHT22;37835;53.256;6.456;2024-03-08T14:10:30;9.10;99.90
51765;DHT22;37835;53.256;6.456;2024-03-08T14:12:57;9.10;99.90
51765;DHT22;37835;53.256;6.456;2024-03-08T14:15:23;9.10;99.90
51765;DHT22;37835;53.256;6.456;2024-03-08T14:17:56;9.20;99.90
51765;DHT22;37835;53.256;6.456;2024-03-08T14:20:24;9.20;99.90
51765;DHT22;37835;53.256;6.456;2024-03-08T14:22:55;9.20;99.90
51765;DHT22;37835;53.256;6.456;2024-03-08T14:25:22;9.20;99.90
51765;DHT22;37835;53.256;6.456;2024-03-08T14:27:52;9.20;99.90
51765;DHT22;37835;53.256;6.456;2024-03-08T14:30:33;9.20;99.90
51765;DHT22;37835;53.256;6.456;2024-03-08T14:33:04;9.20;99.90
51765;DHT22;37835;53.256;6.456;2024-03-08T14:35:39;9.20;99.90
51765;DHT22;37835;53.256;6.456;2024-03-08T14:38:05;9.10;99.90
51765;DHT22;37835;53.256;6.456;2024-03-08T14:40:36;9.10;99.90
51765;DHT22;37835;53.256;6.456;2024-03-08T14:43:02;9.10;99.90
51765;DHT22;37835;53.256;6.456;2024-03-08T14:45:32;9.10;99.90
51765;DHT22;37835;53.256;6.456;2024-03-08T14:47:59;9.10;99.90
51765;DHT22;37835;53.256;6.456;2024-03-08T14:50:25;9.10;99.90
51765;DHT22;37835;53.256;6.456;2024-03-08T14:52:54;9.10;99.90
51765;DHT22;37835;53.256;6.456;2024-03-08T14:55:21;9.10;99.90
51765;DHT22;37835;53.256;6.456;2024-03-08T14:57:50;9.10;99.90
51765;DHT22;37835;53.256;6.456;2024-03-08T15:00:20;9.10;99.90
51765;DHT22;37835;53.256;6.456;2024-03-08T15:03:12;9.10;99.90
51765;DHT22;37835;53.256;6.456;2024-03-08T15:05:42;9.10;99.90
51765;DHT22;37835;53.256;6.456;2024-03-08T15:08:14;9.10;99.90
51765;DHT22;37835;53.256;6.456;2024-03-08T15:10:45;9.10;99.90
51765;DHT22;37835;53.256;6.456;2024-03-08T15:13:15;9.00;99.90
51765;DHT22;37835;53.256;6.456;2024-03-08T15:15:51;9.00;99.90
51765;DHT22;37835;53.256;6.456;2024-03-08T15:18:24;8.90;99.90
51765;DHT22;37835;53.256;6.456;2024-03-08T15:21:00;8.90;99.90
51765;DHT22;37835;53.256;6.456;2024-03-08T15:23:26;8.90;99.90
51765;DHT22;37835;53.256;6.456;2024-03-08T15:25:52;8.90;99.90
51765;DHT22;37835;53.256;6.456;2024-03-08T15:28:19;8.80;99.90
51765;DHT22;37835;53.256;6.456;2024-03-08T15:30:46;8.80;99.90
51765;DHT22;37835;53.256;6.456;2024-03-08T15:33:18;8.70;99.90
51765;DHT22;37835;53.256;6.456;2024-03-08T15:35:50;8.70;99.90
51765;DHT22;37835;53.256;6.456;2024-03-08T15:38:24;8.70;99.90
51765;DHT22;37835;53.256;6.456;2024-03-08T15:40:50;9.70;99.90
51765;DHT22;37835;53.256;6.456;2024-03-08T15:43:17;8.70;99.90
51765;DHT22;37835;53.256;6.456;2024-03-08T15:45:45;8.60;99.90
51765;DHT22;37835;53.256;6.456;2024-03-08T15:48:12;8.70;99.90
51765;DHT22;37835;53.256;6.456;2024-03-08T15:50:38;8.60;99.90
51765;DHT22;37835;53.256;6.456;2024-03-08T15:53:05;8.70;99.90
51765;DHT22;37835;53.256;6.456;2024-03-08T15:55:31;8.60;99.90
51765;DHT22;37835;53.256;6.456;2024-03-08T15:57:57;8.60;99.90
51765;DHT22;37835;53.256;6.456;2024-03-08T16:00:26;8.60;99.90
51765;DHT22;37835;53.256;6.456;2024-03-08T16:03:05;7.70;99.90
51765;DHT22;37835;53.256;6.456;2024-03-08T16:05:38;8.60;99.90
51765;DHT22;37835;53.256;6.456;2024-03-08T16:08:08;8.10;99.90
51765;DHT22;37835;53.256;6.456;2024-03-08T16:10:44;8.50;99.90
51765;DHT22;37835;53.256;6.456;2024-03-08T16:13:13;8.50;99.90
51765;DHT22;37835;53.256;6.456;2024-03-08T16:15:39;8.50;99.90
51765;DHT22;37835;53.256;6.456;2024-03-08T16:18:08;8.40;99.90
51765;DHT22;37835;53.256;6.456;2024-03-08T16:20:34;8.30;99.90
51765;DHT22;37835;53.256;6.456;2024-03-08T16:23:00;8.30;99.90
51765;DHT22;37835;53.256;6.456;2024-03-08T16:25:26;8.20;99.90
51765;DHT22;37835;53.256;6.456;2024-03-08T16:27:53;8.20;99.90
51765;DHT22;37835;53.256;6.456;2024-03-08T16:30:18;8.10;99.90
51765;DHT22;37835;53.256;6.456;2024-03-08T16:32:46;8.10;99.90
51765;DHT22;37835;53.256;6.456;2024-03-08T16:35:17;8.00;99.90
51765;DHT22;37835;53.256;6.456;2024-03-08T16:37:45;8.00;99.90
51765;DHT22;37835;53.256;6.456;2024-03-08T16:40:11;7.90;99.90
51765;DHT22;37835;53.256;6.456;2024-03-08T16:42:43;7.90;99.90
51765;DHT22;37835;53.256;6.456;2024-03-08T16:45:14;7.80;99.90
51765;DHT22;37835;53.256;6.456;2024-03-08T16:47:41;7.80;99.90
51765;DHT22;37835;53.256;6.456;2024-03-08T16:50:08;7.70;99.90
51765;DHT22;37835;53.256;6.456;2024-03-08T16:52:35;7.60;99.90
51765;DHT22;37835;53.256;6.456;2024-03-08T16:55:04;7.60;99.90
51765;DHT22;37835;53.256;6.456;2024-03-08T16:57:46;7.50;99.90
51765;DHT22;37835;53.256;6.456;2024-03-08T17:00:16;7.40;99.90
51765;DHT22;37835;53.256;6.456;2024-03-08T17:02:51;7.30;99.90
51765;DHT22;37835;53.256;6.456;2024-03-08T17:05:18;7.30;99.90
51765;DHT22;37835;53.256;6.456;2024-03-08T17:07:47;7.20;99.90